createdAt,value
2023-11-01T00:00:21.478Z,2.80
2023-11-01T00:05:13.222Z,2.47
2023-11-01T00:10:05.438Z,1.73
2023-11-01T00:14:57.257Z,2.25
2023-11-01T00:19:49.069Z,2.75
2023-11-01T00:24:44.470Z,2.90
2023-11-01T00:29:36.431Z,3.55
2023-11-01T00:34:28.113Z,3.78
2023-11-01T00:39:19.806Z,4.05
2023-11-01T00:44:11.517Z,5.05
2023-11-01T00:49:03.231Z,4.20
2023-11-01T00:53:54.929Z,4.32
2023-11-01T00:58:46.613Z,3.20
2023-11-01T01:03:38.481Z,3.08
2023-11-01T01:08:30.896Z,2.50
2023-11-01T01:13:22.800Z,2.80
2023-11-01T01:18:16.033Z,2.90
2023-11-01T01:23:07.833Z,3.25
2023-11-01T01:27:59.492Z,2.70
2023-11-01T01:32:51.280Z,2.97
2023-11-01T01:37:43.536Z,3.20
2023-11-01T01:42:35.219Z,2.25
2023-11-01T01:47:27.006Z,2.47
2023-11-01T01:52:19.121Z,2.67
2023-11-01T01:57:11.736Z,2.65
2023-11-01T02:02:04.980Z,2.35
2023-11-01T02:06:57.508Z,2.63
2023-11-01T02:11:49.752Z,1.40
2023-11-01T02:16:41.657Z,1.23
2023-11-01T02:21:33.618Z,1.30
2023-11-01T02:26:26.768Z,1.73
2023-11-01T02:31:18.606Z,1.77
2023-11-01T02:36:10.565Z,1.48
2023-11-01T02:41:02.229Z,1.70
2023-11-01T02:45:55.045Z,1.77
2023-11-01T02:50:46.745Z,1.52
2023-11-01T02:55:38.512Z,1.30
2023-11-01T03:00:30.265Z,1.30
2023-11-01T03:05:22.718Z,1.85
2023-11-01T03:10:14.652Z,1.77
2023-11-01T03:15:08.681Z,2.10
2023-11-01T03:20:00.722Z,2.35
2023-11-01T03:24:52.437Z,2.13
2023-11-01T03:29:44.128Z,2.08
2023-11-01T03:34:35.984Z,2.20
2023-11-01T03:39:28.102Z,1.67
2023-11-01T03:44:19.970Z,1.77
2023-11-01T03:49:11.635Z,1.38
2023-11-01T03:54:03.361Z,2.03
2023-11-01T03:58:55.155Z,0.93
2023-11-01T04:03:47.788Z,0.95
2023-11-01T04:08:40.292Z,0.90
2023-11-01T04:13:35.534Z,0.50
2023-11-01T04:18:27.576Z,0.60
2023-11-01T04:23:20.841Z,0.50
2023-11-01T04:28:12.609Z,0.50
2023-11-01T04:33:04.555Z,0.52
2023-11-01T04:37:56.322Z,0.50
2023-11-01T04:42:48.050Z,0.50
2023-11-01T04:47:48.105Z,1.05
2023-11-01T04:52:42.047Z,0.50
2023-11-01T04:57:34.137Z,0.70
2023-11-01T05:02:27.406Z,0.70
2023-11-01T05:07:20.700Z,0.50
2023-11-01T05:12:12.455Z,0.50
2023-11-01T05:17:04.172Z,0.52
2023-11-01T05:21:55.939Z,0.60
2023-11-01T05:26:48.084Z,0.60
2023-11-01T05:31:39.948Z,0.60
2023-11-01T05:36:31.812Z,0.60
2023-11-01T05:41:23.812Z,0.60
2023-11-01T05:46:19.865Z,0.30
2023-11-01T05:51:11.503Z,0.57
2023-11-01T05:56:09.720Z,0.50
2023-11-01T06:01:04.983Z,0.80
2023-11-01T06:05:59.657Z,1.00
2023-11-01T06:10:52.859Z,0.45
2023-11-01T06:15:44.470Z,0.55
2023-11-01T06:20:37.083Z,0.30
2023-11-01T06:25:28.861Z,0.22
2023-11-01T06:30:20.522Z,0.35
2023-11-01T06:35:12.314Z,0.22
2023-11-01T06:40:04.765Z,0.20
2023-11-01T06:44:56.523Z,0.20
2023-11-01T06:49:51.317Z,0.20
2023-11-01T06:54:44.717Z,0.10
2023-11-01T06:59:36.686Z,0.10
2023-11-01T07:04:28.702Z,0.20
2023-11-01T07:09:20.673Z,0.10
2023-11-01T07:14:12.440Z,0.20
2023-11-01T07:19:04.114Z,0.10
2023-11-01T07:23:55.905Z,0.17
2023-11-01T07:28:47.642Z,0.20
2023-11-01T07:33:39.436Z,0.20
2023-11-01T07:38:31.318Z,0.40
2023-11-01T07:43:23.874Z,0.20
2023-11-01T07:48:15.668Z,0.10
2023-11-01T07:53:07.360Z,0.20
2023-11-01T07:57:59.113Z,0.10
2023-11-01T08:02:50.896Z,0.13
2023-11-01T08:07:42.728Z,0.10
2023-11-01T08:12:34.370Z,0.10
2023-11-01T08:17:26.141Z,0.10
2023-11-01T08:22:20.704Z,0.10
2023-11-01T08:27:12.976Z,0.10
2023-11-01T08:32:06.745Z,0.15
2023-11-01T08:36:59.072Z,0.10
2023-11-01T08:41:50.777Z,0.20
2023-11-01T08:46:42.494Z,0.20
2023-11-01T08:51:34.157Z,0.13
2023-11-01T08:56:25.825Z,0.20
2023-11-01T09:01:17.896Z,0.13
2023-11-01T09:06:09.862Z,0.13
2023-11-01T09:11:01.492Z,0.20
2023-11-01T09:15:53.138Z,0.50
2023-11-01T09:20:44.831Z,0.30
2023-11-01T09:25:36.471Z,0.40
2023-11-01T09:30:28.311Z,0.20
2023-11-01T09:35:20.077Z,0.38
2023-11-01T09:40:12.988Z,0.30
2023-11-01T09:45:10.783Z,0.30
2023-11-01T09:50:02.676Z,0.30
2023-11-01T09:54:54.413Z,0.60
2023-11-01T09:59:47.254Z,0.55
2023-11-01T10:04:40.481Z,0.45
2023-11-01T10:09:32.679Z,0.70
2023-11-01T10:14:33.831Z,0.50
2023-11-01T10:19:26.924Z,0.60
2023-11-01T10:24:18.757Z,0.50
2023-11-01T10:29:10.647Z,0.60
2023-11-01T10:34:15.346Z,0.50
2023-11-01T10:39:09.308Z,0.50
2023-11-01T10:44:02.925Z,0.77
2023-11-01T10:48:55.136Z,0.45
2023-11-01T10:53:47.997Z,0.30
2023-11-01T10:58:45.169Z,0.50
2023-11-01T11:03:47.277Z,0.50
2023-11-01T11:08:39.244Z,0.70
2023-11-01T11:13:31.072Z,0.60
2023-11-01T11:18:24.329Z,0.43
2023-11-01T11:23:18.364Z,0.65
2023-11-01T11:28:19.773Z,0.50
2023-11-01T11:33:16.005Z,0.40
2023-11-01T11:38:35.087Z,0.50
2023-11-01T11:43:59.261Z,0.43
2023-11-01T11:48:52.646Z,0.50
2023-11-01T11:53:44.448Z,1.15
2023-11-01T11:58:39.454Z,0.35
2023-11-01T12:03:31.418Z,0.50
2023-11-01T12:08:37.253Z,0.20
2023-11-01T12:13:45.878Z,0.20
2023-11-01T12:18:37.719Z,0.25
2023-11-01T12:23:29.475Z,0.25
2023-11-01T12:28:22.279Z,0.30
2023-11-01T12:33:25.280Z,0.20
2023-11-01T12:38:17.503Z,0.20
2023-11-01T12:43:10.014Z,0.22
2023-11-01T12:48:01.865Z,0.20
2023-11-01T12:52:54.263Z,0.15
2023-11-01T12:57:51.168Z,0.40
2023-11-01T13:02:44.283Z,0.20
2023-11-01T13:07:36.378Z,0.20
2023-11-01T13:12:28.068Z,0.22
2023-11-01T13:17:20.764Z,0.40
2023-11-01T13:22:13.781Z,0.30
2023-11-01T13:27:11.507Z,0.20
2023-11-01T13:32:03.740Z,0.40
2023-11-01T13:36:56.934Z,0.25
2023-11-01T13:41:52.006Z,0.60
2023-11-01T13:46:44.363Z,0.40
2023-11-01T13:51:36.332Z,0.55
2023-11-01T13:56:28.276Z,0.40
2023-11-01T14:01:22.945Z,0.40
2023-11-01T14:06:14.601Z,0.50
2023-11-01T14:11:07.441Z,0.43
2023-11-01T14:15:59.148Z,0.50
2023-11-01T14:20:51.746Z,0.80
2023-11-01T14:25:43.964Z,0.95
2023-11-01T14:30:35.837Z,0.82
2023-11-01T14:35:27.523Z,0.60
2023-11-01T14:40:19.275Z,0.50
2023-11-01T14:45:11.410Z,1.10
2023-11-01T14:50:06.232Z,0.70
2023-11-01T14:54:58.486Z,0.90
2023-11-01T14:59:50.276Z,1.10
2023-11-01T15:04:43.196Z,1.27
2023-11-01T15:09:35.959Z,1.25
2023-11-01T15:14:29.364Z,1.10
2023-11-01T15:19:21.100Z,0.80
2023-11-01T15:24:15.048Z,0.77
2023-11-01T15:29:07.438Z,0.93
2023-11-01T15:34:01.711Z,1.33
2023-11-01T15:38:54.301Z,1.13
2023-11-01T15:43:45.942Z,1.10
2023-11-01T15:48:38.193Z,0.60
2023-11-01T15:53:32.560Z,0.30
2023-11-01T15:58:24.764Z,0.22
2023-11-01T16:03:16.677Z,0.30
2023-11-01T16:08:08.695Z,0.13
2023-11-01T16:13:00.418Z,0.65
2023-11-01T16:17:52.316Z,0.20
2023-11-01T16:22:44.200Z,0.20
2023-11-01T16:27:35.901Z,0.20
2023-11-01T16:32:29.673Z,0.20
2023-11-01T16:37:21.545Z,0.20
2023-11-01T16:42:15.355Z,0.40
2023-11-01T16:47:07.948Z,0.30
2023-11-01T16:51:59.658Z,0.30
2023-11-01T16:56:51.352Z,0.40
2023-11-01T17:01:43.123Z,0.30
2023-11-01T17:06:34.811Z,0.20
2023-11-01T17:11:27.029Z,0.32
2023-11-01T17:16:18.827Z,0.45
2023-11-01T17:21:10.772Z,0.30
2023-11-01T17:26:02.440Z,0.25
2023-11-01T17:30:54.241Z,0.20
2023-11-01T17:35:45.936Z,0.30
2023-11-01T17:40:38.631Z,0.15
2023-11-01T17:45:30.247Z,0.30
2023-11-01T17:50:21.993Z,0.10
2023-11-01T17:55:19.465Z,0.30
2023-11-01T18:00:11.720Z,0.30
2023-11-01T18:05:03.689Z,0.45
2023-11-01T18:09:58.096Z,0.40
2023-11-01T18:14:51.269Z,0.30
2023-11-01T18:19:46.436Z,0.40
2023-11-01T18:24:38.062Z,0.30
2023-11-01T18:29:30.444Z,0.40
2023-11-01T18:34:23.979Z,0.63
2023-11-01T18:39:25.362Z,0.47
2023-11-01T18:44:26.747Z,0.85
2023-11-01T18:49:53.298Z,1.52
2023-11-01T18:54:48.908Z,0.70
2023-11-01T18:59:41.242Z,0.60
2023-11-01T19:04:33.178Z,0.30
2023-11-01T19:09:25.152Z,0.20
2023-11-01T19:14:16.928Z,0.30
2023-11-01T19:19:09.207Z,0.20
2023-11-01T19:24:02.406Z,0.30
2023-11-01T19:28:54.212Z,0.20
2023-11-01T19:33:46.714Z,0.30
2023-11-01T19:38:38.701Z,0.30
2023-11-01T19:43:30.406Z,0.40
2023-11-01T19:48:29.230Z,0.40
2023-11-01T19:53:21.524Z,0.30
2023-11-01T19:58:13.290Z,0.30
2023-11-01T20:03:06.496Z,0.20
2023-11-01T20:07:58.903Z,0.20
2023-11-01T20:12:50.619Z,0.30
2023-11-01T20:17:42.785Z,0.50
2023-11-01T20:22:40.091Z,0.30
2023-11-01T20:27:31.850Z,0.37
2023-11-01T20:32:23.866Z,0.70
2023-11-01T20:37:16.712Z,0.50
2023-11-01T20:42:08.475Z,0.50
2023-11-01T20:47:00.192Z,0.50
2023-11-01T20:51:51.845Z,0.80
2023-11-01T20:56:45.237Z,1.20
2023-11-01T21:01:37.817Z,0.80
2023-11-01T21:06:29.596Z,1.35
2023-11-01T21:11:21.502Z,0.73
2023-11-01T21:16:13.552Z,0.75
2023-11-01T21:21:06.528Z,0.60
2023-11-01T21:25:59.920Z,0.82
2023-11-01T21:30:51.627Z,0.70
2023-11-01T21:35:43.269Z,0.50
2023-11-01T21:40:35.138Z,0.50
2023-11-01T21:45:40.320Z,0.65
2023-11-01T21:50:49.637Z,0.65
2023-11-01T21:55:51.479Z,0.47
2023-11-01T22:00:53.684Z,0.50
2023-11-01T22:05:45.695Z,0.60
2023-11-01T22:10:41.177Z,0.50
2023-11-01T22:15:32.987Z,0.70
2023-11-01T22:20:27.116Z,0.77
2023-11-01T22:25:29.618Z,0.50
2023-11-01T22:30:21.359Z,0.45
2023-11-01T22:35:23.938Z,0.90
2023-11-01T22:40:17.225Z,0.50
2023-11-01T22:45:09.328Z,0.68
2023-11-01T22:50:01.785Z,0.60
2023-11-01T22:54:55.572Z,0.45
2023-11-01T22:59:47.333Z,0.45
2023-11-01T23:04:41.827Z,0.40
2023-11-01T23:09:33.512Z,0.30
2023-11-01T23:14:25.629Z,0.52
2023-11-01T23:19:17.843Z,0.50
2023-11-01T23:24:12.223Z,0.40
2023-11-01T23:29:10.227Z,0.40
2023-11-01T23:34:09.495Z,0.80
2023-11-01T23:39:01.338Z,0.40
2023-11-01T23:43:54.774Z,0.50
2023-11-01T23:48:49.337Z,0.50
2023-11-01T23:53:41.784Z,1.13
2023-11-01T23:58:43.100Z,0.93
